sensor_id;sensor_type;location;lat;lon;timestamp;P1;durP1;ratioP1;P2;durP2;ratioP2
19861;SDS011;10093;48.148;8.542;2022-07-03T00:01:18;4.10;;;1.75;;
19861;SDS011;10093;48.148;8.542;2022-07-03T00:03:44;2.72;;;1.50;;
19861;SDS011;10093;48.148;8.542;2022-07-03T00:06:10;3.70;;;1.45;;
19861;SDS011;10093;48.148;8.542;2022-07-03T00:08:36;3.88;;;1.70;;
19861;SDS011;10093;48.148;8.542;2022-07-03T00:11:02;2.13;;;1.58;;
19861;SDS011;10093;48.148;8.542;2022-07-03T00:13:28;1.85;;;1.75;;
19861;SDS011;10093;48.148;8.542;2022-07-03T00:15:53;1.88;;;1.77;;
19861;SDS011;10093;48.148;8.542;2022-07-03T00:18:19;2.08;;;1.88;;
19861;SDS011;10093;48.148;8.542;2022-07-03T00:20:45;2.80;;;1.70;;
19861;SDS011;10093;48.148;8.542;2022-07-03T00:23:17;2.10;;;2.00;;
19861;SDS011;10093;48.148;8.542;2022-07-03T00:25:43;2.58;;;2.38;;
19861;SDS011;10093;48.148;8.542;2022-07-03T00:28:10;2.70;;;2.28;;
19861;SDS011;10093;48.148;8.542;2022-07-03T00:30:35;2.38;;;2.17;;
19861;SDS011;10093;48.148;8.542;2022-07-03T00:33:02;3.42;;;1.88;;
19861;SDS011;10093;48.148;8.542;2022-07-03T00:35:30;2.28;;;2.17;;
19861;SDS011;10093;48.148;8.542;2022-07-03T00:37:58;1.92;;;1.80;;
19861;SDS011;10093;48.148;8.542;2022-07-03T00:40:24;2.97;;;2.50;;
19861;SDS011;10093;48.148;8.542;2022-07-03T00:42:49;2.05;;;1.85;;
19861;SDS011;10093;48.148;8.542;2022-07-03T00:45:21;2.38;;;2.17;;
19861;SDS011;10093;48.148;8.542;2022-07-03T00:47:47;2.28;;;2.08;;
19861;SDS011;10093;48.148;8.542;2022-07-03T00:50:13;3.13;;;1.83;;
19861;SDS011;10093;48.148;8.542;2022-07-03T00:52:42;3.55;;;2.15;;
19861;SDS011;10093;48.148;8.542;2022-07-03T00:55:15;2.40;;;2.10;;
19861;SDS011;10093;48.148;8.542;2022-07-03T00:57:46;3.60;;;2.30;;
19861;SDS011;10093;48.148;8.542;2022-07-03T01:00:13;2.63;;;2.30;;
19861;SDS011;10093;48.148;8.542;2022-07-03T01:05:27;3.97;;;2.40;;
19861;SDS011;10093;48.148;8.542;2022-07-03T01:11:04;3.15;;;2.35;;
19861;SDS011;10093;48.148;8.542;2022-07-03T01:13:44;2.40;;;2.20;;
19861;SDS011;10093;48.148;8.542;2022-07-03T01:16:17;2.10;;;1.90;;
19861;SDS011;10093;48.148;8.542;2022-07-03T01:22:06;2.60;;;2.38;;
19861;SDS011;10093;48.148;8.542;2022-07-03T01:30:12;1.88;;;1.77;;
19861;SDS011;10093;48.148;8.542;2022-07-03T01:32:45;2.88;;;2.28;;
19861;SDS011;10093;48.148;8.542;2022-07-03T01:35:31;2.72;;;2.05;;
19861;SDS011;10093;48.148;8.542;2022-07-03T01:38:03;1.90;;;1.80;;
19861;SDS011;10093;48.148;8.542;2022-07-03T01:40:34;2.30;;;1.70;;
19861;SDS011;10093;48.148;8.542;2022-07-03T01:43:03;3.72;;;1.70;;
19861;SDS011;10093;48.148;8.542;2022-07-03T01:45:35;2.40;;;1.70;;
19861;SDS011;10093;48.148;8.542;2022-07-03T01:48:04;1.92;;;1.83;;
19861;SDS011;10093;48.148;8.542;2022-07-03T01:50:32;2.85;;;1.50;;
19861;SDS011;10093;48.148;8.542;2022-07-03T01:53:00;1.52;;;1.42;;
19861;SDS011;10093;48.148;8.542;2022-07-03T01:55:29;1.73;;;1.60;;
19861;SDS011;10093;48.148;8.542;2022-07-03T01:57:56;1.45;;;1.35;;
19861;SDS011;10093;48.148;8.542;2022-07-03T02:00:22;3.15;;;1.95;;
19861;SDS011;10093;48.148;8.542;2022-07-03T02:02:51;2.40;;;2.20;;
19861;SDS011;10093;48.148;8.542;2022-07-03T02:10:34;2.47;;;2.20;;
19861;SDS011;10093;48.148;8.542;2022-07-03T02:13:17;2.38;;;2.17;;
19861;SDS011;10093;48.148;8.542;2022-07-03T02:15:49;2.33;;;2.20;;
19861;SDS011;10093;48.148;8.542;2022-07-03T02:18:25;1.80;;;1.70;;
19861;SDS011;10093;48.148;8.542;2022-07-03T02:21:07;1.73;;;1.63;;
19861;SDS011;10093;48.148;8.542;2022-07-03T02:23:46;3.08;;;1.98;;
19861;SDS011;10093;48.148;8.542;2022-07-03T02:26:32;2.00;;;1.90;;
19861;SDS011;10093;48.148;8.542;2022-07-03T02:29:01;2.33;;;2.13;;
19861;SDS011;10093;48.148;8.542;2022-07-03T02:31:28;4.30;;;2.15;;
19861;SDS011;10093;48.148;8.542;2022-07-03T02:34:07;3.00;;;1.73;;
19861;SDS011;10093;48.148;8.542;2022-07-03T02:36:33;3.40;;;1.80;;
19861;SDS011;10093;48.148;8.542;2022-07-03T02:39:00;2.10;;;2.00;;
19861;SDS011;10093;48.148;8.542;2022-07-03T02:41:36;2.45;;;2.25;;
19861;SDS011;10093;48.148;8.542;2022-07-03T02:44:20;2.78;;;2.33;;
19861;SDS011;10093;48.148;8.542;2022-07-03T02:47:00;1.85;;;1.75;;
19861;SDS011;10093;48.148;8.542;2022-07-03T02:54:57;2.30;;;2.20;;
19861;SDS011;10093;48.148;8.542;2022-07-03T02:57:34;4.45;;;2.25;;
19861;SDS011;10093;48.148;8.542;2022-07-03T03:00:04;2.92;;;2.22;;
19861;SDS011;10093;48.148;8.542;2022-07-03T03:02:36;1.90;;;1.80;;
19861;SDS011;10093;48.148;8.542;2022-07-03T03:05:28;2.50;;;2.30;;
19861;SDS011;10093;48.148;8.542;2022-07-03T03:08:10;4.13;;;3.45;;
19861;SDS011;10093;48.148;8.542;2022-07-03T03:10:37;5.75;;;3.97;;
19861;SDS011;10093;48.148;8.542;2022-07-03T03:15:31;5.40;;;4.53;;
19861;SDS011;10093;48.148;8.542;2022-07-03T03:18:00;4.68;;;4.30;;
19861;SDS011;10093;48.148;8.542;2022-07-03T03:20:36;5.55;;;4.10;;
19861;SDS011;10093;48.148;8.542;2022-07-03T03:25:40;4.00;;;3.60;;
19861;SDS011;10093;48.148;8.542;2022-07-03T03:28:06;3.42;;;3.13;;
19861;SDS011;10093;48.148;8.542;2022-07-03T03:30:32;2.88;;;2.67;;
19861;SDS011;10093;48.148;8.542;2022-07-03T03:32:59;3.47;;;2.05;;
19861;SDS011;10093;48.148;8.542;2022-07-03T03:35:25;3.13;;;2.13;;
19861;SDS011;10093;48.148;8.542;2022-07-03T03:37:51;2.00;;;1.90;;
19861;SDS011;10093;48.148;8.542;2022-07-03T03:40:17;3.97;;;2.45;;
19861;SDS011;10093;48.148;8.542;2022-07-03T03:42:42;2.88;;;2.17;;
19861;SDS011;10093;48.148;8.542;2022-07-03T03:45:08;2.88;;;2.03;;
19861;SDS011;10093;48.148;8.542;2022-07-03T03:47:34;2.47;;;1.90;;
19861;SDS011;10093;48.148;8.542;2022-07-03T03:50:00;2.20;;;2.10;;
19861;SDS011;10093;48.148;8.542;2022-07-03T03:52:27;3.22;;;2.10;;
19861;SDS011;10093;48.148;8.542;2022-07-03T03:54:54;4.60;;;2.00;;
19861;SDS011;10093;48.148;8.542;2022-07-03T03:57:21;5.75;;;2.72;;
19861;SDS011;10093;48.148;8.542;2022-07-03T03:59:48;2.72;;;2.58;;
19861;SDS011;10093;48.148;8.542;2022-07-03T04:02:14;4.80;;;3.10;;
19861;SDS011;10093;48.148;8.542;2022-07-03T04:04:41;4.00;;;3.60;;
19861;SDS011;10093;48.148;8.542;2022-07-03T04:07:07;5.35;;;4.57;;
19861;SDS011;10093;48.148;8.542;2022-07-03T04:09:32;3.10;;;2.90;;
19861;SDS011;10093;48.148;8.542;2022-07-03T04:11:58;3.83;;;3.53;;
19861;SDS011;10093;48.148;8.542;2022-07-03T04:14:24;3.20;;;3.00;;
19861;SDS011;10093;48.148;8.542;2022-07-03T04:16:50;3.42;;;2.60;;
19861;SDS011;10093;48.148;8.542;2022-07-03T04:19:16;6.65;;;3.60;;
19861;SDS011;10093;48.148;8.542;2022-07-03T04:21:42;4.10;;;3.80;;
19861;SDS011;10093;48.148;8.542;2022-07-03T04:24:08;5.82;;;3.10;;
19861;SDS011;10093;48.148;8.542;2022-07-03T04:26:33;4.35;;;3.53;;
19861;SDS011;10093;48.148;8.542;2022-07-03T04:28:59;4.97;;;2.20;;
19861;SDS011;10093;48.148;8.542;2022-07-03T04:31:25;4.00;;;2.90;;
19861;SDS011;10093;48.148;8.542;2022-07-03T04:33:50;2.53;;;2.40;;
19861;SDS011;10093;48.148;8.542;2022-07-03T04:36:16;3.17;;;2.97;;
19861;SDS011;10093;48.148;8.542;2022-07-03T04:38:42;4.40;;;2.42;;
19861;SDS011;10093;48.148;8.542;2022-07-03T04:41:08;5.60;;;2.92;;
19861;SDS011;10093;48.148;8.542;2022-07-03T04:43:34;2.70;;;2.20;;
19861;SDS011;10093;48.148;8.542;2022-07-03T04:46:01;2.00;;;1.83;;
19861;SDS011;10093;48.148;8.542;2022-07-03T04:48:28;3.17;;;2.10;;
19861;SDS011;10093;48.148;8.542;2022-07-03T04:50:54;2.65;;;2.40;;
19861;SDS011;10093;48.148;8.542;2022-07-03T04:53:20;3.28;;;2.97;;
19861;SDS011;10093;48.148;8.542;2022-07-03T04:55:46;2.78;;;2.58;;
19861;SDS011;10093;48.148;8.542;2022-07-03T04:58:11;2.28;;;2.08;;
19861;SDS011;10093;48.148;8.542;2022-07-03T05:00:37;2.50;;;2.30;;
19861;SDS011;10093;48.148;8.542;2022-07-03T05:03:05;2.90;;;2.40;;
19861;SDS011;10093;48.148;8.542;2022-07-03T05:05:31;2.42;;;2.30;;
19861;SDS011;10093;48.148;8.542;2022-07-03T05:07:57;2.85;;;2.50;;
19861;SDS011;10093;48.148;8.542;2022-07-03T05:10:23;3.58;;;2.20;;
19861;SDS011;10093;48.148;8.542;2022-07-03T05:12:49;4.25;;;1.80;;
19861;SDS011;10093;48.148;8.542;2022-07-03T05:15:15;3.63;;;1.50;;
19861;SDS011;10093;48.148;8.542;2022-07-03T05:17:40;3.13;;;1.30;;
19861;SDS011;10093;48.148;8.542;2022-07-03T05:20:06;2.50;;;0.90;;
19861;SDS011;10093;48.148;8.542;2022-07-03T05:23:00;1.02;;;0.95;;
19861;SDS011;10093;48.148;8.542;2022-07-03T05:25:27;1.10;;;1.05;;
19861;SDS011;10093;48.148;8.542;2022-07-03T05:27:54;0.70;;;0.70;;
19861;SDS011;10093;48.148;8.542;2022-07-03T05:30:21;2.38;;;0.80;;
19861;SDS011;10093;48.148;8.542;2022-07-03T05:32:47;0.70;;;0.65;;
19861;SDS011;10093;48.148;8.542;2022-07-03T05:35:13;1.13;;;0.70;;
19861;SDS011;10093;48.148;8.542;2022-07-03T05:37:39;1.17;;;0.70;;
19861;SDS011;10093;48.148;8.542;2022-07-03T05:40:05;1.95;;;0.50;;
19861;SDS011;10093;48.148;8.542;2022-07-03T05:42:31;0.85;;;0.45;;
19861;SDS011;10093;48.148;8.542;2022-07-03T05:44:57;0.70;;;0.68;;
19861;SDS011;10093;48.148;8.542;2022-07-03T05:47:23;0.95;;;0.70;;
19861;SDS011;10093;48.148;8.542;2022-07-03T05:49:48;1.08;;;0.70;;
19861;SDS011;10093;48.148;8.542;2022-07-03T05:52:14;2.05;;;0.68;;
19861;SDS011;10093;48.148;8.542;2022-07-03T05:54:41;5.10;;;0.82;;
19861;SDS011;10093;48.148;8.542;2022-07-03T05:57:07;1.40;;;0.60;;
19861;SDS011;10093;48.148;8.542;2022-07-03T05:59:33;1.42;;;0.50;;
19861;SDS011;10093;48.148;8.542;2022-07-03T06:01:58;2.13;;;0.50;;
19861;SDS011;10093;48.148;8.542;2022-07-03T06:04:24;1.02;;;0.50;;
19861;SDS011;10093;48.148;8.542;2022-07-03T06:06:50;1.10;;;0.50;;
19861;SDS011;10093;48.148;8.542;2022-07-03T06:09:15;5.38;;;0.77;;
19861;SDS011;10093;48.148;8.542;2022-07-03T06:11:41;0.55;;;0.40;;
19861;SDS011;10093;48.148;8.542;2022-07-03T06:14:07;0.60;;;0.60;;
19861;SDS011;10093;48.148;8.542;2022-07-03T06:16:32;4.03;;;0.50;;
19861;SDS011;10093;48.148;8.542;2022-07-03T06:18:58;2.25;;;0.40;;
19861;SDS011;10093;48.148;8.542;2022-07-03T06:21:24;0.98;;;0.40;;
19861;SDS011;10093;48.148;8.542;2022-07-03T06:23:50;4.35;;;0.45;;
19861;SDS011;10093;48.148;8.542;2022-07-03T06:26:16;0.65;;;0.30;;
19861;SDS011;10093;48.148;8.542;2022-07-03T06:28:42;0.75;;;0.30;;
19861;SDS011;10093;48.148;8.542;2022-07-03T06:31:08;0.35;;;0.30;;
19861;SDS011;10093;48.148;8.542;2022-07-03T06:33:34;0.40;;;0.30;;
19861;SDS011;10093;48.148;8.542;2022-07-03T06:35:59;1.50;;;0.30;;
19861;SDS011;10093;48.148;8.542;2022-07-03T06:38:25;0.95;;;0.30;;
19861;SDS011;10093;48.148;8.542;2022-07-03T06:40:51;2.17;;;0.40;;
19861;SDS011;10093;48.148;8.542;2022-07-03T06:43:16;1.75;;;0.30;;
19861;SDS011;10093;48.148;8.542;2022-07-03T06:45:42;2.40;;;0.40;;
19861;SDS011;10093;48.148;8.542;2022-07-03T06:48:08;0.77;;;0.30;;
19861;SDS011;10093;48.148;8.542;2022-07-03T06:50:33;0.25;;;0.20;;
19861;SDS011;10093;48.148;8.542;2022-07-03T06:52:59;1.80;;;0.20;;
19861;SDS011;10093;48.148;8.542;2022-07-03T06:55:25;0.20;;;0.20;;
19861;SDS011;10093;48.148;8.542;2022-07-03T06:57:52;0.20;;;0.20;;
19861;SDS011;10093;48.148;8.542;2022-07-03T07:00:17;0.85;;;0.30;;
19861;SDS011;10093;48.148;8.542;2022-07-03T07:02:43;2.35;;;0.30;;
19861;SDS011;10093;48.148;8.542;2022-07-03T07:05:09;0.40;;;0.20;;
19861;SDS011;10093;48.148;8.542;2022-07-03T07:07:35;1.73;;;0.17;;
19861;SDS011;10093;48.148;8.542;2022-07-03T07:10:01;1.77;;;0.20;;
19861;SDS011;10093;48.148;8.542;2022-07-03T07:12:27;3.50;;;0.20;;
19861;SDS011;10093;48.148;8.542;2022-07-03T07:14:52;0.68;;;0.15;;
19861;SDS011;10093;48.148;8.542;2022-07-03T07:17:18;0.43;;;0.20;;
19861;SDS011;10093;48.148;8.542;2022-07-03T07:19:44;0.85;;;0.10;;
19861;SDS011;10093;48.148;8.542;2022-07-03T07:22:09;0.35;;;0.20;;
19861;SDS011;10093;48.148;8.542;2022-07-03T07:24:35;0.63;;;0.10;;
19861;SDS011;10093;48.148;8.542;2022-07-03T07:27:00;1.10;;;0.10;;
19861;SDS011;10093;48.148;8.542;2022-07-03T07:29:26;0.10;;;0.08;;
19861;SDS011;10093;48.148;8.542;2022-07-03T07:31:52;0.10;;;0.10;;
19861;SDS011;10093;48.148;8.542;2022-07-03T07:34:18;1.75;;;0.10;;
19861;SDS011;10093;48.148;8.542;2022-07-03T07:36:43;1.23;;;0.10;;
19861;SDS011;10093;48.148;8.542;2022-07-03T07:39:09;1.58;;;0.10;;
19861;SDS011;10093;48.148;8.542;2022-07-03T07:41:35;0.30;;;0.10;;
19861;SDS011;10093;48.148;8.542;2022-07-03T07:44:01;0.10;;;0.10;;
19861;SDS011;10093;48.148;8.542;2022-07-03T07:46:28;0.65;;;0.10;;
19861;SDS011;10093;48.148;8.542;2022-07-03T07:48:54;1.65;;;0.10;;
19861;SDS011;10093;48.148;8.542;2022-07-03T07:51:20;1.17;;;0.10;;
19861;SDS011;10093;48.148;8.542;2022-07-03T07:53:45;0.30;;;0.10;;
19861;SDS011;10093;48.148;8.542;2022-07-03T07:56:11;0.00;;;0.00;;
19861;SDS011;10093;48.148;8.542;2022-07-03T07:58:37;1.40;;;0.10;;
19861;SDS011;10093;48.148;8.542;2022-07-03T08:01:02;0.25;;;0.10;;
19861;SDS011;10093;48.148;8.542;2022-07-03T08:03:46;1.65;;;0.10;;
19861;SDS011;10093;48.148;8.542;2022-07-03T08:06:30;0.10;;;0.10;;
19861;SDS011;10093;48.148;8.542;2022-07-03T08:08:56;0.55;;;0.40;;
19861;SDS011;10093;48.148;8.542;2022-07-03T08:11:21;1.35;;;0.10;;
19861;SDS011;10093;48.148;8.542;2022-07-03T08:13:47;0.30;;;0.10;;
19861;SDS011;10093;48.148;8.542;2022-07-03T08:16:13;0.95;;;0.10;;
19861;SDS011;10093;48.148;8.542;2022-07-03T08:18:39;0.10;;;0.00;;
19861;SDS011;10093;48.148;8.542;2022-07-03T08:21:05;1.88;;;0.10;;
19861;SDS011;10093;48.148;8.542;2022-07-03T08:23:30;0.95;;;0.10;;
19861;SDS011;10093;48.148;8.542;2022-07-03T08:25:56;2.50;;;0.10;;
19861;SDS011;10093;48.148;8.542;2022-07-03T08:28:22;3.28;;;0.10;;
19861;SDS011;10093;48.148;8.542;2022-07-03T08:30:48;2.33;;;0.10;;
19861;SDS011;10093;48.148;8.542;2022-07-03T08:33:14;0.03;;;0.00;;
19861;SDS011;10093;48.148;8.542;2022-07-03T08:35:40;1.27;;;0.10;;
19861;SDS011;10093;48.148;8.542;2022-07-03T08:38:05;0.43;;;0.05;;
19861;SDS011;10093;48.148;8.542;2022-07-03T08:40:31;4.93;;;0.10;;
19861;SDS011;10093;48.148;8.542;2022-07-03T08:42:58;1.60;;;0.10;;
19861;SDS011;10093;48.148;8.542;2022-07-03T08:45:26;0.08;;;0.08;;
19861;SDS011;10093;48.148;8.542;2022-07-03T08:47:55;0.47;;;0.10;;
19861;SDS011;10093;48.148;8.542;2022-07-03T08:50:24;0.13;;;0.08;;
19861;SDS011;10093;48.148;8.542;2022-07-03T08:52:50;0.15;;;0.10;;
19861;SDS011;10093;48.148;8.542;2022-07-03T08:55:17;0.65;;;0.10;;
19861;SDS011;10093;48.148;8.542;2022-07-03T08:57:43;1.35;;;0.10;;
19861;SDS011;10093;48.148;8.542;2022-07-03T09:00:13;0.15;;;0.10;;
19861;SDS011;10093;48.148;8.542;2022-07-03T09:02:44;0.40;;;0.10;;
19861;SDS011;10093;48.148;8.542;2022-07-03T09:05:11;0.47;;;0.00;;
19861;SDS011;10093;48.148;8.542;2022-07-03T09:07:39;0.10;;;0.10;;
19861;SDS011;10093;48.148;8.542;2022-07-03T09:10:07;0.17;;;0.10;;
19861;SDS011;10093;48.148;8.542;2022-07-03T09:12:35;2.72;;;0.10;;
19861;SDS011;10093;48.148;8.542;2022-07-03T09:15:02;0.50;;;0.10;;
19861;SDS011;10093;48.148;8.542;2022-07-03T09:17:30;1.90;;;0.10;;
19861;SDS011;10093;48.148;8.542;2022-07-03T09:20:00;0.00;;;0.00;;
19861;SDS011;10093;48.148;8.542;2022-07-03T09:22:32;0.68;;;0.10;;
19861;SDS011;10093;48.148;8.542;2022-07-03T09:25:07;0.93;;;0.10;;
19861;SDS011;10093;48.148;8.542;2022-07-03T09:27:34;0.15;;;0.10;;
19861;SDS011;10093;48.148;8.542;2022-07-03T09:30:13;0.25;;;0.10;;
19861;SDS011;10093;48.148;8.542;2022-07-03T09:32:42;0.45;;;0.03;;
19861;SDS011;10093;48.148;8.542;2022-07-03T09:37:52;0.28;;;0.10;;
19861;SDS011;10093;48.148;8.542;2022-07-03T09:40:51;0.38;;;0.10;;
19861;SDS011;10093;48.148;8.542;2022-07-03T09:43:30;1.55;;;0.08;;
19861;SDS011;10093;48.148;8.542;2022-07-03T09:45:57;0.77;;;0.10;;
19861;SDS011;10093;48.148;8.542;2022-07-03T09:48:33;0.30;;;0.10;;
19861;SDS011;10093;48.148;8.542;2022-07-03T09:51:19;0.50;;;0.08;;
19861;SDS011;10093;48.148;8.542;2022-07-03T09:54:00;1.42;;;0.10;;
19861;SDS011;10093;48.148;8.542;2022-07-03T09:56:33;0.38;;;0.03;;
19861;SDS011;10093;48.148;8.542;2022-07-03T10:01:32;0.38;;;0.10;;
19861;SDS011;10093;48.148;8.542;2022-07-03T10:04:08;0.30;;;0.10;;
19861;SDS011;10093;48.148;8.542;2022-07-03T10:07:00;2.47;;;0.10;;
19861;SDS011;10093;48.148;8.542;2022-07-03T10:09:27;1.88;;;0.10;;
19861;SDS011;10093;48.148;8.542;2022-07-03T10:11:54;1.30;;;0.10;;
19861;SDS011;10093;48.148;8.542;2022-07-03T10:14:22;0.47;;;0.00;;
19861;SDS011;10093;48.148;8.542;2022-07-03T10:16:49;0.30;;;0.10;;
19861;SDS011;10093;48.148;8.542;2022-07-03T10:19:23;0.57;;;0.10;;
19861;SDS011;10093;48.148;8.542;2022-07-03T10:21:53;2.92;;;0.10;;
19861;SDS011;10093;48.148;8.542;2022-07-03T10:24:24;0.95;;;0.10;;
19861;SDS011;10093;48.148;8.542;2022-07-03T10:26:52;0.15;;;0.00;;
19861;SDS011;10093;48.148;8.542;2022-07-03T10:29:20;0.60;;;0.10;;
19861;SDS011;10093;48.148;8.542;2022-07-03T10:31:47;0.10;;;0.10;;
19861;SDS011;10093;48.148;8.542;2022-07-03T10:34:17;2.08;;;0.10;;
19861;SDS011;10093;48.148;8.542;2022-07-03T10:36:45;0.50;;;0.10;;
19861;SDS011;10093;48.148;8.542;2022-07-03T10:39:18;0.10;;;0.10;;
19861;SDS011;10093;48.148;8.542;2022-07-03T10:41:58;1.90;;;0.10;;
19861;SDS011;10093;48.148;8.542;2022-07-03T10:45:02;0.70;;;0.10;;
19861;SDS011;10093;48.148;8.542;2022-07-03T10:47:47;0.55;;;0.10;;
19861;SDS011;10093;48.148;8.542;2022-07-03T10:50:18;0.38;;;0.10;;
19861;SDS011;10093;48.148;8.542;2022-07-03T10:52:46;0.28;;;0.10;;
19861;SDS011;10093;48.148;8.542;2022-07-03T10:55:13;1.55;;;0.10;;
19861;SDS011;10093;48.148;8.542;2022-07-03T10:57:41;1.20;;;0.10;;
19861;SDS011;10093;48.148;8.542;2022-07-03T11:00:14;1.02;;;0.10;;
19861;SDS011;10093;48.148;8.542;2022-07-03T11:02:42;0.93;;;0.20;;
19861;SDS011;10093;48.148;8.542;2022-07-03T11:05:25;1.60;;;0.20;;
19861;SDS011;10093;48.148;8.542;2022-07-03T11:12:53;0.82;;;0.20;;
19861;SDS011;10093;48.148;8.542;2022-07-03T11:23:09;0.40;;;0.20;;
19861;SDS011;10093;48.148;8.542;2022-07-03T11:28:04;0.95;;;0.30;;
19861;SDS011;10093;48.148;8.542;2022-07-03T11:30:31;0.38;;;0.20;;
19861;SDS011;10093;48.148;8.542;2022-07-03T11:32:59;1.75;;;0.10;;
19861;SDS011;10093;48.148;8.542;2022-07-03T11:38:29;1.58;;;0.10;;
19861;SDS011;10093;48.148;8.542;2022-07-03T11:40:56;0.55;;;0.20;;
19861;SDS011;10093;48.148;8.542;2022-07-03T11:43:23;1.92;;;0.20;;
19861;SDS011;10093;48.148;8.542;2022-07-03T11:45:49;0.25;;;0.17;;
19861;SDS011;10093;48.148;8.542;2022-07-03T11:48:16;3.00;;;0.20;;
19861;SDS011;10093;48.148;8.542;2022-07-03T11:50:51;0.82;;;0.20;;
19861;SDS011;10093;48.148;8.542;2022-07-03T11:56:00;2.65;;;0.17;;
19861;SDS011;10093;48.148;8.542;2022-07-03T11:58:44;1.52;;;0.20;;
19861;SDS011;10093;48.148;8.542;2022-07-03T12:01:10;1.70;;;0.20;;
19861;SDS011;10093;48.148;8.542;2022-07-03T12:06:44;1.08;;;0.10;;
19861;SDS011;10093;48.148;8.542;2022-07-03T12:09:20;5.40;;;0.20;;
19861;SDS011;10093;48.148;8.542;2022-07-03T12:12:03;0.60;;;0.20;;
19861;SDS011;10093;48.148;8.542;2022-07-03T12:16:58;2.03;;;0.10;;
19861;SDS011;10093;48.148;8.542;2022-07-03T12:19:24;0.68;;;0.20;;
19861;SDS011;10093;48.148;8.542;2022-07-03T12:21:50;2.78;;;0.20;;
19861;SDS011;10093;48.148;8.542;2022-07-03T12:24:16;0.90;;;0.20;;
19861;SDS011;10093;48.148;8.542;2022-07-03T12:26:42;1.85;;;0.10;;
19861;SDS011;10093;48.148;8.542;2022-07-03T12:29:12;0.43;;;0.10;;
19861;SDS011;10093;48.148;8.542;2022-07-03T12:31:40;0.37;;;0.10;;
19861;SDS011;10093;48.148;8.542;2022-07-03T12:34:10;0.10;;;0.10;;
19861;SDS011;10093;48.148;8.542;2022-07-03T12:36:37;0.25;;;0.10;;
19861;SDS011;10093;48.148;8.542;2022-07-03T12:39:03;0.35;;;0.10;;
19861;SDS011;10093;48.148;8.542;2022-07-03T12:41:29;2.40;;;0.10;;
19861;SDS011;10093;48.148;8.542;2022-07-03T12:43:57;0.55;;;0.10;;
19861;SDS011;10093;48.148;8.542;2022-07-03T12:46:34;0.55;;;0.10;;
19861;SDS011;10093;48.148;8.542;2022-07-03T12:49:10;1.15;;;0.10;;
19861;SDS011;10093;48.148;8.542;2022-07-03T12:51:49;2.30;;;0.20;;
19861;SDS011;10093;48.148;8.542;2022-07-03T12:54:22;0.20;;;0.10;;
19861;SDS011;10093;48.148;8.542;2022-07-03T12:57:05;1.95;;;0.10;;
19861;SDS011;10093;48.148;8.542;2022-07-03T13:00:12;0.20;;;0.10;;
19861;SDS011;10093;48.148;8.542;2022-07-03T13:02:37;0.30;;;0.10;;
19861;SDS011;10093;48.148;8.542;2022-07-03T13:05:20;1.10;;;0.10;;
19861;SDS011;10093;48.148;8.542;2022-07-03T13:07:48;0.85;;;0.10;;
19861;SDS011;10093;48.148;8.542;2022-07-03T13:10:18;0.52;;;0.10;;
19861;SDS011;10093;48.148;8.542;2022-07-03T13:15:23;0.60;;;0.13;;
19861;SDS011;10093;48.148;8.542;2022-07-03T13:20:40;0.30;;;0.10;;
19861;SDS011;10093;48.148;8.542;2022-07-03T13:23:05;0.47;;;0.15;;
19861;SDS011;10093;48.148;8.542;2022-07-03T13:25:32;1.45;;;0.10;;
19861;SDS011;10093;48.148;8.542;2022-07-03T13:28:06;1.55;;;0.10;;
19861;SDS011;10093;48.148;8.542;2022-07-03T13:30:34;1.45;;;0.10;;
19861;SDS011;10093;48.148;8.542;2022-07-03T13:33:00;0.98;;;0.10;;
19861;SDS011;10093;48.148;8.542;2022-07-03T13:35:27;1.45;;;0.13;;
19861;SDS011;10093;48.148;8.542;2022-07-03T13:37:53;4.22;;;0.10;;
19861;SDS011;10093;48.148;8.542;2022-07-03T13:40:18;0.88;;;0.10;;
19861;SDS011;10093;48.148;8.542;2022-07-03T13:42:44;0.10;;;0.10;;
19861;SDS011;10093;48.148;8.542;2022-07-03T13:45:10;0.15;;;0.10;;
19861;SDS011;10093;48.148;8.542;2022-07-03T13:47:36;1.65;;;0.10;;
19861;SDS011;10093;48.148;8.542;2022-07-03T13:50:02;0.60;;;0.10;;
19861;SDS011;10093;48.148;8.542;2022-07-03T13:52:29;0.25;;;0.00;;
19861;SDS011;10093;48.148;8.542;2022-07-03T13:54:55;1.23;;;0.13;;
19861;SDS011;10093;48.148;8.542;2022-07-03T13:57:20;0.30;;;0.10;;
19861;SDS011;10093;48.148;8.542;2022-07-03T13:59:46;1.45;;;0.10;;
19861;SDS011;10093;48.148;8.542;2022-07-03T14:02:13;0.20;;;0.10;;
19861;SDS011;10093;48.148;8.542;2022-07-03T14:04:39;2.58;;;0.10;;
19861;SDS011;10093;48.148;8.542;2022-07-03T14:07:04;0.10;;;0.05;;
19861;SDS011;10093;48.148;8.542;2022-07-03T14:09:30;0.10;;;0.10;;
19861;SDS011;10093;48.148;8.542;2022-07-03T14:11:56;0.10;;;0.10;;
19861;SDS011;10093;48.148;8.542;2022-07-03T14:14:22;0.10;;;0.10;;
19861;SDS011;10093;48.148;8.542;2022-07-03T14:16:47;0.30;;;0.10;;
19861;SDS011;10093;48.148;8.542;2022-07-03T14:19:13;0.25;;;0.10;;
19861;SDS011;10093;48.148;8.542;2022-07-03T14:21:39;1.35;;;0.10;;
19861;SDS011;10093;48.148;8.542;2022-07-03T14:24:04;0.30;;;0.10;;
19861;SDS011;10093;48.148;8.542;2022-07-03T14:26:30;0.70;;;0.10;;
19861;SDS011;10093;48.148;8.542;2022-07-03T14:29:15;0.43;;;0.25;;
19861;SDS011;10093;48.148;8.542;2022-07-03T14:31:59;0.68;;;0.10;;
19861;SDS011;10093;48.148;8.542;2022-07-03T14:34:43;2.30;;;0.40;;
19861;SDS011;10093;48.148;8.542;2022-07-03T14:37:09;2.03;;;0.20;;
19861;SDS011;10093;48.148;8.542;2022-07-03T14:39:35;1.17;;;0.10;;
19861;SDS011;10093;48.148;8.542;2022-07-03T14:42:01;1.55;;;0.10;;
19861;SDS011;10093;48.148;8.542;2022-07-03T14:44:27;1.35;;;0.20;;
19861;SDS011;10093;48.148;8.542;2022-07-03T14:46:54;0.20;;;0.10;;
19861;SDS011;10093;48.148;8.542;2022-07-03T14:49:20;1.00;;;0.10;;
19861;SDS011;10093;48.148;8.542;2022-07-03T14:51:46;0.45;;;0.20;;
19861;SDS011;10093;48.148;8.542;2022-07-03T14:54:15;0.93;;;0.10;;
19861;SDS011;10093;48.148;8.542;2022-07-03T14:56:43;0.65;;;0.10;;
19861;SDS011;10093;48.148;8.542;2022-07-03T14:59:17;0.22;;;0.20;;
19861;SDS011;10093;48.148;8.542;2022-07-03T15:01:52;1.65;;;0.10;;
19861;SDS011;10093;48.148;8.542;2022-07-03T15:04:35;1.80;;;0.20;;
19861;SDS011;10093;48.148;8.542;2022-07-03T15:07:06;0.60;;;0.10;;
19861;SDS011;10093;48.148;8.542;2022-07-03T15:09:32;0.10;;;0.10;;
19861;SDS011;10093;48.148;8.542;2022-07-03T15:12:02;0.30;;;0.20;;
19861;SDS011;10093;48.148;8.542;2022-07-03T15:14:48;0.65;;;0.20;;
19861;SDS011;10093;48.148;8.542;2022-07-03T15:17:16;0.30;;;0.20;;
19861;SDS011;10093;48.148;8.542;2022-07-03T15:19:45;0.20;;;0.15;;
19861;SDS011;10093;48.148;8.542;2022-07-03T15:22:12;0.57;;;0.20;;
19861;SDS011;10093;48.148;8.542;2022-07-03T15:24:40;1.98;;;0.13;;
19861;SDS011;10093;48.148;8.542;2022-07-03T15:27:06;1.85;;;0.20;;
19861;SDS011;10093;48.148;8.542;2022-07-03T15:29:32;0.90;;;0.10;;
19861;SDS011;10093;48.148;8.542;2022-07-03T15:32:02;2.38;;;0.10;;
19861;SDS011;10093;48.148;8.542;2022-07-03T15:34:29;0.30;;;0.10;;
19861;SDS011;10093;48.148;8.542;2022-07-03T15:37:01;0.30;;;0.20;;
19861;SDS011;10093;48.148;8.542;2022-07-03T15:39:37;1.10;;;0.20;;
19861;SDS011;10093;48.148;8.542;2022-07-03T15:42:13;0.30;;;0.20;;
19861;SDS011;10093;48.148;8.542;2022-07-03T15:49:57;0.40;;;0.10;;
19861;SDS011;10093;48.148;8.542;2022-07-03T15:52:27;0.73;;;0.10;;
19861;SDS011;10093;48.148;8.542;2022-07-03T15:54:58;0.10;;;0.10;;
19861;SDS011;10093;48.148;8.542;2022-07-03T15:57:34;1.27;;;0.20;;
19861;SDS011;10093;48.148;8.542;2022-07-03T16:00:12;0.22;;;0.10;;
19861;SDS011;10093;48.148;8.542;2022-07-03T16:05:10;2.83;;;0.20;;
19861;SDS011;10093;48.148;8.542;2022-07-03T16:07:37;1.75;;;0.20;;
19861;SDS011;10093;48.148;8.542;2022-07-03T16:10:08;2.40;;;0.20;;
19861;SDS011;10093;48.148;8.542;2022-07-03T16:12:35;2.15;;;0.22;;
19861;SDS011;10093;48.148;8.542;2022-07-03T16:15:02;2.83;;;0.20;;